LDSB/BWK METAR and TAF weather

Enter ICAO airport designator
Station Type Date Time Source
LDSB METAR 2019/08/17 11:00 UTC NOAA

LDSB 171100Z 22009KT CAVOK 25/11 Q1018


Station Type Date Time Source
LDSB Decoded METAR 2019/08/17 11:00 UTC NOAA

Station name not available
Aug 17, 2019 - 07:00 AM EDT / 2019.08.17 1100 UTC
Wind: from the SW (220 degrees) at 10 MPH (9 KT):0
Visibility: greater than 7 mile(s):0
Temperature: 77 F (25 C)
Dew Point: 51 F (11 C)
Relative Humidity: 41%
Pressure (altimeter): 30.06 in. Hg (1018 hPa)
ob: LDSB 171100Z 22009KT CAVOK 25/11 Q1018
cycle: 11

Station Type Date Time Source
LDSB TAF 2019/08/17 12:27 UTC NOAA

TAF LDSB 171125Z 1712/1812 22009KT CAVOK TX28/1811Z TN20/1804Z
BECMG 1712/1714 28009KT PROB30 1810/1812 20007KT

Example: see airport list